Time;durP1;ratioP1;P1;durP2;ratioP2;P2;SDS_P1;SDS_P2;PMS_P1;PMS_P2;Temp;Humidity;BMP_temperature;BMP_pressure;BME280_temperature;BME280_humidity;BME280_pressure;Samples;Min_cycle;Max_cycle;Signal;HPM_P1;HPM_P2
2023/01/02 13:57:23;;;;;;;28.85;17.60;;;;;;;9.01;100.00;99565.81;5050781;28;20126;-60
2023/01/02 14:00:07;;;;;;;26.95;18.58;;;;;;;9.04;100.00;99569.03;5059931;28;20025;-59
2023/01/02 14:02:32;;;;;;;28.05;18.02;;;;;;;8.73;100.00;99528.91;5040953;28;20063;-62
2023/01/02 14:04:58;;;;;;;27.85;17.65;;;;;;;8.91;100.00;99578.63;5041910;28;20064;-62
2023/01/02 14:07:23;;;;;;;27.63;17.55;;;;;;;8.66;100.00;99538.88;5042292;28;20021;-61
2023/01/02 14:10:22;;;;;;;28.38;17.25;;;;;;;8.87;100.00;99578.94;5039218;28;20028;-58
2023/01/02 14:12:56;;;;;;;28.90;17.65;;;;;;;8.82;100.00;99579.28;5044925;28;20088;-60
2023/01/02 14:15:24;;;;;;;26.45;16.85;;;;;;;8.85;100.00;99587.69;5046479;28;20025;-59
2023/01/02 14:17:58;;;;;;;27.88;16.92;;;;;;;8.95;100.00;99587.03;5044565;28;20795;-59
2023/01/02 14:20:25;;;;;;;25.45;15.88;;;;;;;9.01;100.00;99586.56;5024398;28;20107;-59
2023/01/02 14:23:03;;;;;;;24.55;16.25;;;;;;;8.84;100.00;99551.47;5045084;28;20574;-59
2023/01/02 14:25:30;;;;;;;27.30;17.15;;;;;;;9.10;100.00;99587.69;5061765;28;20032;-59
2023/01/02 14:28:01;;;;;;;24.58;16.70;;;;;;;9.10;100.00;99585.09;5038610;28;20037;-58
2023/01/02 14:30:37;;;;;;;23.17;15.88;;;;;;;9.08;100.00;99581.78;5042028;28;20021;-64
2023/01/02 14:33:05;;;;;;;23.52;16.15;;;;;;;9.16;100.00;99574.25;5042869;28;20443;-64
2023/01/02 14:35:38;;;;;;;24.70;16.35;;;;;;;9.24;100.00;99580.53;5025810;28;20024;-58
2023/01/02 14:38:11;;;;;;;24.70;15.93;;;;;;;9.29;100.00;99580.22;5033941;28;20028;-60
2023/01/02 14:40:39;;;;;;;23.33;16.38;;;;;;;9.28;100.00;99575.94;5045964;28;20032;-60
2023/01/02 14:43:29;;;;;;;21.75;15.85;;;;;;;9.03;100.00;99523.28;5043375;28;20025;-59
2023/01/02 14:46:03;;;;;;;20.63;14.85;;;;;;;9.39;100.00;99564.78;5033153;28;20056;-58
2023/01/02 14:48:57;;;;;;;22.60;16.33;;;;;;;9.40;100.00;99567.28;5063691;28;20040;-58
2023/01/02 14:51:29;;;;;;;21.77;15.55;;;;;;;9.40;100.00;99567.28;5040545;28;20028;-60
2023/01/02 14:54:10;;;;;;;24.08;15.88;;;;;;;9.37;100.00;99566.66;5045359;28;20032;-59
2023/01/02 14:56:37;;;;;;;22.92;16.15;;;;;;;9.38;100.00;99571.75;5042377;28;20467;-62
2023/01/02 14:59:04;;;;;;;24.23;15.18;;;;;;;9.38;100.00;99566.56;5033385;28;20036;-66
2023/01/02 15:01:35;;;;;;;21.92;15.70;;;;;;;9.39;100.00;99565.59;5032280;28;20043;-60
2023/01/02 15:04:43;;;;;;;26.13;16.33;;;;;;;9.39;100.00;99568.19;5044907;28;20093;-59
2023/01/02 15:07:16;;;;;;;25.92;16.77;;;;;;;9.45;100.00;99566.09;5043039;28;20029;-63
2023/01/02 15:09:46;;;;;;;26.30;17.73;;;;;;;9.29;100.00;99554.25;5049553;28;20028;-60
2023/01/02 15:15:18;;;;;;;26.02;17.23;;;;;;;9.50;100.00;99575.19;5051480;28;20036;-63
2023/01/02 15:17:46;;;;;;;25.10;17.48;;;;;;;9.43;100.00;99566.19;5031823;28;20024;-60
2023/01/02 15:20:17;;;;;;;23.58;16.13;;;;;;;9.46;100.00;99572.94;5031115;28;20136;-60
2023/01/02 15:22:44;;;;;;;24.02;17.90;;;;;;;9.31;100.00;99572.28;5041006;28;20025;-59
2023/01/02 15:25:11;;;;;;;22.25;16.10;;;;;;;9.25;100.00;99573.56;5032138;28;20036;-61
2023/01/02 15:27:38;;;;;;;23.52;16.13;;;;;;;9.02;100.00;99531.16;5032827;28;20024;-62
2023/01/02 15:30:22;;;;;;;21.42;14.82;;;;;;;9.18;100.00;99572.38;5042018;28;20016;-60
2023/01/02 15:32:48;;;;;;;21.50;15.70;;;;;;;9.15;100.00;99568.25;5027265;28;20086;-60
2023/01/02 15:35:21;;;;;;;20.38;15.90;;;;;;;9.26;100.00;99566.63;5031421;28;20039;-59
2023/01/02 15:37:47;;;;;;;22.48;15.55;;;;;;;9.26;100.00;99574.41;5032786;28;20067;-58
2023/01/02 15:40:19;;;;;;;20.58;14.98;;;;;;;9.21;100.00;99569.56;5032513;28;20043;-61
2023/01/02 15:45:30;;;;;;;21.75;16.02;;;;;;;9.20;100.00;99557.53;5049677;28;20035;-59
2023/01/02 15:47:56;;;;;;;22.50;15.75;;;;;;;9.19;100.00;99566.25;5045602;28;20620;-61
2023/01/02 15:50:27;;;;;;;28.40;20.10;;;;;;;9.07;100.00;99546.38;5042771;28;20049;-59
2023/01/02 15:53:05;;;;;;;24.95;17.70;;;;;;;9.21;100.00;99564.38;5043250;28;20032;-61
2023/01/02 15:55:36;;;;;;;24.75;17.60;;;;;;;9.15;100.00;99563.06;5031614;28;20498;-58
2023/01/02 15:58:14;;;;;;;23.38;16.52;;;;;;;9.22;100.00;99579.00;5044794;28;20044;-60
2023/01/02 16:00:40;;;;;;;21.00;15.15;;;;;;;9.26;100.00;99582.22;5062945;28;20032;-60
2023/01/02 16:03:07;;;;;;;24.50;17.33;;;;;;;9.20;100.00;99575.69;5045452;28;20030;-63
2023/01/02 16:05:50;;;;;;;21.27;16.40;;;;;;;8.98;100.00;99538.34;5042289;28;20021;-61
2023/01/02 16:08:18;;;;;;;27.08;19.63;;;;;;;9.10;100.00;99554.78;5038387;28;20040;-61
2023/01/02 16:10:44;;;;;;;25.85;17.60;;;;;;;9.24;100.00;99567.56;5029570;28;20030;-62
2023/01/02 16:16:04;;;;;;;23.48;17.17;;;;;;;9.22;100.00;99576.41;5049661;28;20039;-64
2023/01/02 16:18:37;;;;;;;22.40;17.30;;;;;;;9.28;100.00;99582.91;5044835;28;20044;-61
2023/01/02 16:21:02;;;;;;;22.92;17.05;;;;;;;9.29;100.00;99582.81;5042880;28;20157;-61
2023/01/02 16:23:28;;;;;;;21.65;17.02;;;;;;;9.36;100.00;99590.94;5045746;28;20833;-61
2023/01/02 16:25:53;;;;;;;24.35;17.35;;;;;;;9.35;100.00;99586.72;5061104;28;20027;-61
2023/01/02 16:28:24;;;;;;;22.80;16.75;;;;;;;9.36;100.00;99578.81;5043096;28;20070;-59
2023/01/02 16:31:06;;;;;;;24.80;18.38;;;;;;;9.37;100.00;99583.06;5044284;28;20177;-59
2023/01/02 16:33:34;;;;;;;21.40;16.92;;;;;;;9.39;100.00;99582.94;5044628;28;20237;-61
2023/01/02 16:36:03;;;;;;;22.92;17.90;;;;;;;9.40;100.00;99585.44;5046476;28;20081;-61
2023/01/02 16:38:29;;;;;;;20.98;17.23;;;;;;;9.39;100.00;99581.16;5060445;28;20538;-66
2023/01/02 16:41:03;;;;;;;22.27;17.25;;;;;;;9.37;100.00;99571.84;5046218;28;20043;-57
2023/01/02 16:43:31;;;;;;;23.65;17.13;;;;;;;9.38;100.00;99581.28;5046539;28;20032;-58
2023/01/02 16:45:57;;;;;;;21.20;16.45;;;;;;;9.27;100.00;99565.69;5048454;28;20048;-61
2023/01/02 16:48:26;;;;;;;21.23;17.42;;;;;;;9.15;100.00;99544.88;5044515;28;20043;-62
2023/01/02 16:50:53;;;;;;;22.80;18.35;;;;;;;9.31;100.00;99580.94;5025903;28;20124;-59
2023/01/02 16:53:25;;;;;;;25.08;18.60;;;;;;;9.13;100.00;99548.53;5025413;28;20598;-59
2023/01/02 16:55:51;;;;;;;28.38;21.90;;;;;;;9.34;100.00;99580.69;5044521;28;20104;-59
2023/01/02 16:58:18;;;;;;;27.25;20.20;;;;;;;9.38;100.00;99584.72;5045077;28;20044;-60
2023/01/02 17:00:43;;;;;;;25.80;19.20;;;;;;;9.41;100.00;99581.06;5026242;28;20031;-60
2023/01/02 17:03:27;;;;;;;25.00;18.75;;;;;;;9.34;100.00;99583.28;5037241;28;20033;-59
2023/01/02 17:05:56;;;;;;;22.52;16.40;;;;;;;8.99;100.00;99550.34;5045058;28;20531;-59
2023/01/02 17:08:21;;;;;;;22.95;16.98;;;;;;;9.18;100.00;99588.78;5043698;28;20511;-62
2023/01/02 17:10:47;;;;;;;21.77;15.77;;;;;;;9.12;100.00;99552.88;5025159;28;20040;-61
2023/01/02 17:13:12;;;;;;;18.88;14.73;;;;;;;9.22;100.00;99589.38;5025826;28;20039;-59
2023/01/02 17:15:40;;;;;;;18.52;14.30;;;;;;;9.17;100.00;99586.28;5044048;28;20036;-57
2023/01/02 17:18:06;;;;;;;23.10;16.10;;;;;;;8.97;100.00;99549.66;5026788;28;20039;-62
2023/01/02 17:20:32;;;;;;;21.70;16.10;;;;;;;9.20;100.00;99583.50;5028678;28;20077;-61
2023/01/02 17:22:57;;;;;;;19.63;15.38;;;;;;;9.20;100.00;99581.72;5023629;28;20685;-58
2023/01/02 17:25:23;;;;;;;21.60;16.38;;;;;;;9.17;100.00;99587.13;5045647;28;20640;-60
2023/01/02 17:27:49;;;;;;;22.70;16.90;;;;;;;9.12;100.00;99578.00;5066596;28;20534;-58
2023/01/02 17:30:15;;;;;;;22.15;16.05;;;;;;;9.16;100.00;99590.66;5059888;28;20130;-58
2023/01/02 17:32:42;;;;;;;27.10;20.13;;;;;;;9.17;100.00;99588.88;5041882;28;20024;-60
2023/01/02 17:35:08;;;;;;;22.33;15.85;;;;;;;9.17;100.00;99589.72;5027633;28;20033;-61
2023/01/02 17:37:34;;;;;;;22.30;15.35;;;;;;;9.16;100.00;99584.63;5045106;28;20558;-60
2023/01/02 17:40:00;;;;;;;25.63;16.05;;;;;;;9.14;100.00;99582.13;5040822;28;20027;-58
2023/01/02 17:42:26;;;;;;;25.10;16.90;;;;;;;8.93;100.00;99548.22;5027987;28;20398;-59
2023/01/02 17:44:51;;;;;;;23.60;15.93;;;;;;;9.13;100.00;99590.88;5040239;28;20033;-59
2023/01/02 17:47:17;;;;;;;21.15;15.25;;;;;;;9.06;100.00;99586.25;5042167;28;20036;-60
2023/01/02 17:49:42;;;;;;;25.60;17.95;;;;;;;8.88;100.00;99555.50;5060259;28;20516;-61
2023/01/02 17:52:11;;;;;;;23.80;16.20;;;;;;;9.09;100.00;99579.06;5042067;28;20060;-60
2023/01/02 17:54:36;;;;;;;26.42;17.63;;;;;;;9.14;100.00;99587.31;5039375;28;20020;-60
2023/01/02 17:57:02;;;;;;;21.95;14.45;;;;;;;9.06;100.00;99583.66;5043931;28;20029;-60
2023/01/02 17:59:28;;;;;;;21.45;15.35;;;;;;;8.93;100.00;99558.59;5024466;28;20476;-61
2023/01/02 18:01:53;;;;;;;22.10;15.77;;;;;;;9.01;100.00;99563.22;5043867;28;20059;-59
2023/01/02 18:04:19;;;;;;;23.25;16.35;;;;;;;9.12;100.00;99584.03;5029966;28;20032;-57
2023/01/02 18:06:45;;;;;;;21.17;15.70;;;;;;;8.93;100.00;99548.22;5043619;28;20043;-57
2023/01/02 18:09:11;;;;;;;24.52;16.30;;;;;;;9.18;100.00;99595.72;5025312;28;20106;-62
2023/01/02 18:11:36;;;;;;;24.45;17.80;;;;;;;8.97;100.00;99551.44;5064639;28;20402;-61
2023/01/02 18:14:02;;;;;;;24.05;18.35;;;;;;;9.19;100.00;99589.59;5048835;28;20020;-61
2023/01/02 18:16:39;;;;;;;26.02;18.83;;;;;;;9.29;100.00;99595.78;5041679;28;20044;-58
2023/01/02 18:19:20;;;;;;;21.20;16.15;;;;;;;9.15;100.00;99588.19;5042397;28;20028;-58
2023/01/02 18:21:46;;;;;;;19.95;14.85;;;;;;;9.12;100.00;99589.22;5060270;28;20033;-59
2023/01/02 18:24:20;;;;;;;19.20;14.23;;;;;;;9.13;100.00;99590.06;5064874;28;20040;-59
2023/01/02 18:26:45;;;;;;;25.77;19.92;;;;;;;9.09;100.00;99591.19;5046158;28;20028;-58
2023/01/02 18:29:20;;;;;;;23.13;17.35;;;;;;;9.08;100.00;99589.56;5064747;28;20841;-58
2023/01/02 18:31:46;;;;;;;23.92;18.00;;;;;;;9.09;100.00;99591.19;5044978;28;20037;-59
2023/01/02 18:34:17;;;;;;;23.70;17.55;;;;;;;9.15;100.00;99590.78;5045166;28;20086;-60
2023/01/02 18:36:43;;;;;;;23.48;16.40;;;;;;;9.19;100.00;99599.97;5043457;28;20039;-61
2023/01/02 18:39:34;;;;;;;25.52;16.42;;;;;;;9.20;100.00;99597.28;5043750;28;20024;-59
2023/01/02 18:42:09;;;;;;;24.05;17.38;;;;;;;9.19;100.00;99603.41;5059592;28;20600;-59
2023/01/02 18:44:36;;;;;;;23.45;17.52;;;;;;;8.98;100.00;99579.00;5040904;28;20028;-60
2023/01/02 18:47:12;;;;;;;24.70;18.38;;;;;;;9.09;100.00;99602.44;5022186;28;20021;-60
2023/01/02 18:49:42;;;;;;;34.53;24.95;;;;;;;9.12;100.00;99599.59;5045543;28;20032;-61
2023/01/02 18:52:10;;;;;;;37.33;24.15;;;;;;;9.11;100.00;99604.88;5044548;28;20407;-61
2023/01/02 18:54:40;;;;;;;28.95;18.80;;;;;;;9.13;100.00;99603.03;5057458;28;20043;-58
2023/01/02 18:57:20;;;;;;;20.70;15.02;;;;;;;9.06;100.00;99597.44;5041620;28;20029;-62
2023/01/02 18:59:48;;;;;;;22.60;16.95;;;;;;;9.02;100.00;99599.44;5050436;28;20021;-59
2023/01/02 19:02:48;;;;;;;28.90;20.02;;;;;;;9.09;100.00;99606.75;5043736;28;20587;-60
2023/01/02 19:05:22;;;;;;;22.95;16.40;;;;;;;9.09;100.00;99602.44;5061375;28;20024;-60
2023/01/02 19:07:48;;;;;;;22.65;16.63;;;;;;;9.08;100.00;99605.13;5045289;28;20997;-60
2023/01/02 19:10:31;;;;;;;22.13;15.68;;;;;;;9.03;100.00;99603.69;5025124;28;20029;-61
2023/01/02 19:13:03;;;;;;;25.90;18.27;;;;;;;8.68;100.00;99558.69;5058166;28;20665;-62
2023/01/02 19:15:39;;;;;;;26.88;19.15;;;;;;;9.03;100.00;99608.88;5054545;28;20024;-58
2023/01/02 19:18:14;;;;;;;25.05;16.88;;;;;;;9.04;100.00;99609.72;5044967;28;20043;-62
2023/01/02 19:20:44;;;;;;;24.02;17.27;;;;;;;9.00;100.00;99603.91;5060217;28;20025;-59
2023/01/02 19:23:22;;;;;;;24.42;17.02;;;;;;;8.99;100.00;99609.19;5040202;28;20319;-61
2023/01/02 19:25:48;;;;;;;24.25;17.35;;;;;;;8.97;100.00;99606.72;5063270;28;20043;-59
2023/01/02 19:28:27;;;;;;;25.15;17.15;;;;;;;9.06;100.00;99617.38;5027852;28;20033;-60
2023/01/02 19:30:53;;;;;;;24.75;18.05;;;;;;;8.99;100.00;99604.84;5025760;28;20037;-62
2023/01/02 19:33:38;;;;;;;24.45;17.55;;;;;;;9.05;100.00;99611.34;5042101;28;20094;-59
2023/01/02 19:36:06;;;;;;;25.90;18.73;;;;;;;8.96;100.00;99610.25;5042543;28;20491;-62
2023/01/02 19:38:33;;;;;;;24.75;17.27;;;;;;;8.85;100.00;99584.25;5046517;28;20040;-58
2023/01/02 19:40:59;;;;;;;26.05;18.08;;;;;;;9.10;100.00;99619.63;5058067;28;20088;-59
2023/01/02 19:43:25;;;;;;;24.02;16.95;;;;;;;9.17;100.00;99620.84;5037204;28;20165;-59
2023/01/02 19:45:51;;;;;;;23.85;16.75;;;;;;;9.19;100.00;99616.38;5052867;28;20082;-60
2023/01/02 19:48:17;;;;;;;22.88;16.17;;;;;;;9.11;100.00;99610.91;5040983;28;21796;-61
2023/01/02 19:50:42;;;;;;;24.70;17.13;;;;;;;9.16;100.00;99610.56;5045273;28;20028;-62
2023/01/02 19:53:08;;;;;;;24.58;17.00;;;;;;;9.06;100.00;99614.78;5040112;28;20040;-67
2023/01/02 19:55:35;;;;;;;26.02;17.02;;;;;;;9.02;100.00;99611.59;5045236;28;20146;-63
2023/01/02 19:58:02;;;;;;;25.92;17.83;;;;;;;8.93;100.00;99618.25;5041888;28;20040;-58
2023/01/02 20:00:27;;;;;;;27.13;17.65;;;;;;;8.80;100.00;99579.41;5047396;28;20391;-59
2023/01/02 20:02:53;;;;;;;27.75;17.48;;;;;;;9.01;100.00;99607.31;5026095;28;20039;-59
2023/01/02 20:05:20;;;;;;;26.30;18.77;;;;;;;9.09;100.00;99601.56;5046579;28;20028;-60
2023/01/02 20:07:45;;;;;;;24.15;18.08;;;;;;;9.02;100.00;99599.44;5046367;28;20025;-57
2023/01/02 20:10:11;;;;;;;24.25;16.92;;;;;;;9.02;100.00;99604.63;5046654;28;20242;-57
2023/01/02 20:12:40;;;;;;;26.45;16.85;;;;;;;9.01;100.00;99608.16;5042816;28;20451;-58
2023/01/02 20:15:05;;;;;;;25.35;16.98;;;;;;;8.73;100.00;99567.00;5044801;28;20028;-58
2023/01/02 20:17:32;;;;;;;25.42;16.42;;;;;;;8.64;100.00;99561.50;5048491;28;20089;-58
2023/01/02 20:19:57;;;;;;;25.70;17.30;;;;;;;8.95;100.00;99602.59;5062402;28;20071;-66
2023/01/02 20:22:23;;;;;;;21.58;16.63;;;;;;;8.95;100.00;99611.19;5046024;28;20115;-61
2023/01/02 20:24:49;;;;;;;24.13;17.10;;;;;;;8.84;100.00;99605.94;5040722;28;20052;-58
2023/01/02 20:27:16;;;;;;;29.67;16.70;;;;;;;8.52;100.00;99564.13;5060685;28;20045;-57
2023/01/02 20:29:42;;;;;;;26.67;16.88;;;;;;;8.72;100.00;99602.44;5028945;28;20029;-59
2023/01/02 20:32:07;;;;;;;24.35;17.08;;;;;;;8.71;100.00;99595.63;5022681;28;20123;-62
2023/01/02 20:34:33;;;;;;;28.20;18.25;;;;;;;8.74;100.00;99589.38;5044291;28;20036;-61
2023/01/02 20:36:58;;;;;;;25.63;18.27;;;;;;;8.80;100.00;99594.13;5026301;28;20147;-58
2023/01/02 20:39:24;;;;;;;27.02;17.90;;;;;;;8.80;100.00;99589.78;5047348;28;20804;-59
2023/01/02 20:41:50;;;;;;;25.95;16.15;;;;;;;8.88;100.00;99593.59;5062479;28;20127;-60
2023/01/02 20:44:16;;;;;;;23.88;16.98;;;;;;;8.87;100.00;99599.69;5037688;28;20032;-58
2023/01/02 20:46:41;;;;;;;27.77;18.52;;;;;;;8.83;100.00;99594.75;5028409;28;20086;-59
2023/01/02 20:49:07;;;;;;;24.63;16.40;;;;;;;8.88;100.00;99602.19;5046424;28;20041;-60
2023/01/02 20:51:34;;;;;;;24.23;16.10;;;;;;;8.88;100.00;99598.78;5046947;28;20127;-68
2023/01/02 20:53:59;;;;;;;23.88;15.80;;;;;;;8.87;100.00;99590.19;5044648;28;20032;-61
2023/01/02 20:56:26;;;;;;;24.38;16.25;;;;;;;8.79;100.00;99598.47;5032512;28;20085;-58
2023/01/02 20:58:52;;;;;;;24.33;16.92;;;;;;;8.87;100.00;99602.28;5043437;28;20062;-62
2023/01/02 21:01:18;;;;;;;26.67;17.60;;;;;;;8.88;100.00;99606.56;5039881;28;20060;-60
2023/01/02 21:03:44;;;;;;;23.90;16.75;;;;;;;8.67;100.00;99560.47;5046158;28;20025;-59
2023/01/02 21:06:09;;;;;;;25.48;15.68;;;;;;;8.91;100.00;99599.38;5061861;28;20097;-57
2023/01/02 21:08:35;;;;;;;24.20;16.00;;;;;;;8.88;100.00;99601.38;5045432;28;20499;-60
2023/01/02 21:11:04;;;;;;;22.70;16.45;;;;;;;8.82;100.00;99598.28;5045897;28;20052;-67
2023/01/02 21:13:29;;;;;;;24.88;16.33;;;;;;;8.78;100.00;99598.59;5043527;28;20037;-58
2023/01/02 21:15:56;;;;;;;24.52;15.55;;;;;;;8.62;100.00;99559.97;5063687;28;20021;-58
2023/01/02 21:18:40;;;;;;;23.85;16.08;;;;;;;8.87;100.00;99592.78;5027784;28;20044;-64
2023/01/02 21:21:09;;;;;;;22.48;15.57;;;;;;;8.67;100.00;99557.88;5057455;28;20027;-58
2023/01/02 21:23:36;;;;;;;23.23;16.10;;;;;;;8.94;100.00;99591.34;5048560;28;20082;-58
2023/01/02 21:26:38;;;;;;;24.17;16.27;;;;;;;8.99;100.00;99593.63;5022453;28;20020;-64
2023/01/02 21:29:03;;;;;;;22.33;15.90;;;;;;;9.05;100.00;99600.97;5029731;28;20103;-62
2023/01/02 21:31:29;;;;;;;24.38;16.13;;;;;;;9.07;100.00;99603.47;5039169;28;20040;-59
2023/01/02 21:33:54;;;;;;;24.23;16.13;;;;;;;9.05;100.00;99600.97;5025132;28;20021;-58
2023/01/02 21:36:20;;;;;;;23.58;15.70;;;;;;;8.80;100.00;99556.06;5049541;28;20024;-59
2023/01/02 21:38:46;;;;;;;23.60;15.00;;;;;;;8.83;100.00;99560.19;5020679;28;20028;-61
2023/01/02 21:43:57;;;;;;;24.10;15.65;;;;;;;9.07;100.00;99601.69;5046148;28;20039;-57
2023/01/02 21:46:22;;;;;;;26.13;16.15;;;;;;;9.12;100.00;99603.97;5065709;28;20104;-63
2023/01/02 21:48:49;;;;;;;21.85;15.15;;;;;;;9.00;100.00;99584.94;5061155;28;20123;-59
2023/01/02 21:51:15;;;;;;;21.73;14.88;;;;;;;9.18;100.00;99614.72;5047683;28;20033;-61
2023/01/02 21:53:40;;;;;;;23.00;14.88;;;;;;;9.16;100.00;99620.94;5061733;28;20772;-63
2023/01/02 21:56:07;;;;;;;24.55;15.00;;;;;;;9.06;100.00;99609.59;5047728;28;20033;-61
2023/01/02 21:58:33;;;;;;;23.58;15.38;;;;;;;9.00;100.00;99603.91;5045254;28;20032;-61
2023/01/02 22:00:58;;;;;;;25.58;15.45;;;;;;;8.96;100.00;99599.88;5030739;28;20082;-60
2023/01/02 22:07:17;;;;;;;21.35;14.65;;;;;;;8.81;100.00;99580.22;5047300;28;20043;-62
2023/01/02 22:09:42;;;;;;;20.15;12.77;;;;;;;9.02;100.00;99609.00;5040469;28;20661;-59
2023/01/02 22:18:52;;;;;;;23.08;14.30;;;;;;;9.11;100.00;99610.91;5055543;28;20442;-60
2023/01/02 22:21:17;;;;;;;21.75;14.75;;;;;;;9.17;100.00;99610.47;5045937;28;20032;-60
2023/01/02 22:23:43;;;;;;;23.67;14.75;;;;;;;9.06;100.00;99607.81;5041402;28;20158;-61
2023/01/02 22:26:08;;;;;;;21.15;13.73;;;;;;;9.11;100.00;99613.53;5029425;28;20111;-59
2023/01/02 22:28:34;;;;;;;23.13;14.38;;;;;;;9.15;100.00;99612.34;5037097;28;20029;-63
2023/01/02 22:31:00;;;;;;;24.30;15.45;;;;;;;8.80;100.00;99584.59;5025080;28;20031;-60
2023/01/02 22:33:27;;;;;;;23.63;15.30;;;;;;;9.01;100.00;99610.75;5049793;28;20100;-62
2023/01/02 22:35:56;;;;;;;23.08;14.60;;;;;;;8.99;100.00;99620.41;5030161;28;20101;-65
2023/01/02 22:38:21;;;;;;;21.53;14.63;;;;;;;9.02;100.00;99625.38;5067694;28;20040;-59
2023/01/02 22:40:47;;;;;;;22.05;14.90;;;;;;;8.89;100.00;99611.63;5030279;28;20367;-61
2023/01/02 22:43:13;;;;;;;23.80;14.85;;;;;;;8.91;100.00;99616.69;5048485;28;20031;-62
2023/01/02 22:45:44;;;;;;;22.00;15.00;;;;;;;8.97;100.00;99621.47;5043697;28;20028;-58
2023/01/02 22:48:17;;;;;;;21.52;14.63;;;;;;;8.79;100.00;99588.09;5029156;28;20040;-61
2023/01/02 22:50:44;;;;;;;21.85;14.32;;;;;;;9.02;100.00;99624.56;5060347;28;20024;-60
2023/01/02 22:53:22;;;;;;;23.50;14.90;;;;;;;8.99;100.00;99606.63;5065370;28;20028;-59
2023/01/02 22:55:48;;;;;;;22.65;14.82;;;;;;;8.81;100.00;99590.59;5026769;28;20035;-60
2023/01/02 22:58:14;;;;;;;21.35;14.52;;;;;;;9.10;100.00;99618.81;5046123;28;20204;-62
2023/01/02 23:00:39;;;;;;;23.48;14.98;;;;;;;8.74;100.00;99574.63;5044024;28;20050;-60
2023/01/02 23:03:14;;;;;;;24.08;15.55;;;;;;;8.88;100.00;99598.78;5026477;28;20053;-60
2023/01/02 23:05:40;;;;;;;23.38;15.30;;;;;;;8.98;100.00;99610.13;5030800;28;20530;-60
2023/01/02 23:08:07;;;;;;;24.88;16.38;;;;;;;9.02;100.00;99615.00;5047177;28;20025;-62
2023/01/02 23:10:33;;;;;;;23.45;15.57;;;;;;;8.98;100.00;99607.53;5028415;28;20123;-63
2023/01/02 23:12:58;;;;;;;23.85;15.60;;;;;;;9.03;100.00;99605.44;5038553;28;20534;-60
2023/01/02 23:15:24;;;;;;;21.90;14.93;;;;;;;9.10;100.00;99604.06;5039211;28;20036;-63
2023/01/02 23:20:34;;;;;;;23.77;15.88;;;;;;;8.92;100.00;99582.03;5057100;28;20632;-62
2023/01/02 23:23:00;;;;;;;24.70;15.50;;;;;;;9.07;100.00;99595.69;5049580;28;20067;-60
2023/01/02 23:25:25;;;;;;;24.58;15.65;;;;;;;9.13;100.00;99611.63;5030819;28;20052;-62
2023/01/02 23:27:51;;;;;;;25.38;16.17;;;;;;;9.08;100.00;99605.13;5066940;28;20721;-60
2023/01/02 23:30:16;;;;;;;25.77;15.55;;;;;;;8.99;100.00;99597.06;5064030;28;20384;-61
2023/01/02 23:32:42;;;;;;;23.15;15.52;;;;;;;9.02;100.00;99599.44;5046964;28;20062;-62
2023/01/02 23:35:08;;;;;;;22.48;15.52;;;;;;;9.06;100.00;99601.81;5047030;28;20422;-65
2023/01/02 23:37:33;;;;;;;25.58;16.45;;;;;;;9.05;100.00;99603.56;5064039;28;20051;-62
2023/01/02 23:39:59;;;;;;;25.17;15.40;;;;;;;9.06;100.00;99599.22;5058062;28;20016;-60
2023/01/02 23:42:24;;;;;;;23.50;15.68;;;;;;;8.99;100.00;99598.81;5024717;28;20036;-59
2023/01/02 23:44:50;;;;;;;22.98;15.65;;;;;;;9.02;100.00;99601.22;5047275;28;20123;-60
2023/01/02 23:47:15;;;;;;;24.55;15.02;;;;;;;9.03;100.00;99601.09;5047116;28;20471;-59
2023/01/02 23:49:41;;;;;;;24.55;15.77;;;;;;;9.04;100.00;99594.13;5039551;28;20140;-63
2023/01/02 23:52:06;;;;;;;22.08;14.63;;;;;;;9.00;100.00;99593.53;5041926;28;20051;-60
2023/01/02 23:54:32;;;;;;;23.50;15.23;;;;;;;9.00;100.00;99600.50;5044112;28;20407;-60
2023/01/02 23:56:57;;;;;;;23.55;14.95;;;;;;;9.01;100.00;99594.34;5038500;28;20469;-58
2023/01/02 23:59:24;;;;;;;24.17;15.27;;;;;;;8.97;100.00;99593.75;5043717;28;20032;-65
